Time;durP1;ratioP1;P1;durP2;ratioP2;P2;SDS_P1;SDS_P2;PMS_P1;PMS_P2;Temp;Humidity;BMP_temperature;BMP_pressure;BME280_temperature;BME280_humidity;BME280_pressure;Samples;Min_cycle;Max_cycle;Signal;HPM_P1;HPM_P2
2024/03/23 00:02:32;;;;;;;0.60;0.60;;;;;;;7.21;100.00;101095.06;10454086;28;20029;-72
2024/03/23 00:07:33;;;;;;;0.35;0.35;;;;;;;7.25;100.00;101098.25;10454595;28;20027;-72
2024/03/23 00:12:35;;;;;;;0.60;0.60;;;;;;;7.26;100.00;101091.00;10454865;28;20465;-72
2024/03/23 00:17:36;;;;;;;1.70;1.70;;;;;;;7.28;100.00;101092.53;10436872;28;20032;-72
2024/03/23 00:22:38;;;;;;;3.88;3.67;;;;;;;7.30;100.00;101095.88;10454907;28;20040;-72
2024/03/23 00:27:39;;;;;;;0.80;0.80;;;;;;;7.34;100.00;101088.28;10453492;28;20443;-72
2024/03/23 00:32:40;;;;;;;0.60;0.60;;;;;;;7.38;100.00;101085.09;10454409;28;20464;-72
2024/03/23 00:37:42;;;;;;;4.47;2.20;;;;;;;7.42;100.00;101080.19;10453216;28;20406;-72
2024/03/23 00:42:43;;;;;;;2.47;2.38;;;;;;;7.42;100.00;101074.81;10453486;28;20123;-72
2024/03/23 00:47:44;;;;;;;0.90;0.90;;;;;;;7.37;100.00;101067.25;10454289;28;20028;-72
2024/03/23 00:52:46;;;;;;;0.50;0.50;;;;;;;7.15;100.00;101051.81;10454331;28;20020;-72
2024/03/23 00:57:46;;;;;;;0.50;0.50;;;;;;;6.97;100.00;101044.75;10460918;28;20108;-72
2024/03/23 01:02:47;;;;;;;0.60;0.60;;;;;;;6.79;100.00;101038.72;10460268;28;20056;-72
2024/03/23 01:07:47;;;;;;;0.50;0.50;;;;;;;6.58;100.00;101038.41;10461268;28;20341;-72
2024/03/23 01:12:47;;;;;;;0.50;0.50;;;;;;;6.47;100.00;101032.31;10460512;28;20040;-72
2024/03/23 01:17:48;;;;;;;0.60;0.60;;;;;;;6.39;100.00;101035.03;10461087;28;20398;-72
2024/03/23 01:22:48;;;;;;;0.60;0.60;;;;;;;6.33;100.00;101038.38;10461833;28;20029;-72
2024/03/23 01:27:49;;;;;;;0.60;0.60;;;;;;;6.27;100.00;101031.81;10462564;28;20140;-72
2024/03/23 01:32:49;;;;;;;5.32;4.97;;;;;;;6.19;100.00;101028.25;10459127;28;20051;-72
2024/03/23 01:37:49;;;;;;;0.80;0.80;;;;;;;6.16;100.00;101034.84;10460652;28;20033;-72
2024/03/23 01:43:07;;;;;;;0.50;0.50;;;;;;;6.10;100.00;101014.00;10460392;28;20051;-71
2024/03/23 01:48:08;;;;;;;1.00;1.00;;;;;;;6.02;100.00;101019.34;10458571;28;20029;-72
2024/03/23 01:53:09;;;;;;;0.75;0.75;;;;;;;5.93;100.00;101014.94;10459033;28;20088;-72
2024/03/23 01:58:09;;;;;;;0.60;0.60;;;;;;;5.94;100.00;101013.97;10459057;28;20033;-72
2024/03/23 02:03:26;;;;;;;0.70;0.70;;;;;;;5.87;100.00;101007.50;10458639;28;20107;-71
2024/03/23 02:08:26;;;;;;;0.80;0.80;;;;;;;5.79;100.00;101001.09;10456987;28;20060;-72
2024/03/23 02:13:26;;;;;;;0.68;0.68;;;;;;;5.79;100.00;101000.28;10458953;28;20108;-71
2024/03/23 02:18:27;;;;;;;0.60;0.60;;;;;;;5.91;100.00;100998.97;10458766;28;20437;-71
2024/03/23 02:23:27;;;;;;;0.40;0.40;;;;;;;5.95;100.00;100991.44;10439736;28;20116;-72
2024/03/23 02:28:28;;;;;;;0.60;0.60;;;;;;;5.97;100.00;100984.06;10458534;28;20115;-71
2024/03/23 02:33:28;;;;;;;0.70;0.70;;;;;;;5.91;100.00;100984.69;10440020;28;20123;-71
2024/03/23 02:38:28;;;;;;;2.95;2.42;;;;;;;5.79;100.00;100973.41;10456357;28;20041;-71
2024/03/23 02:43:29;;;;;;;0.60;0.60;;;;;;;5.75;100.00;100972.88;10440756;28;20037;-71
2024/03/23 02:48:29;;;;;;;13.50;4.90;;;;;;;5.70;100.00;100961.78;10439663;28;20171;-71
2024/03/23 02:53:30;;;;;;;14.32;3.72;;;;;;;5.68;100.00;100971.88;10457437;28;20033;-71
2024/03/23 02:58:30;;;;;;;10.32;4.32;;;;;;;5.69;100.00;100972.72;10456397;28;20036;-71
2024/03/23 03:03:30;;;;;;;10.35;3.90;;;;;;;5.68;100.00;100960.25;10456713;28;20484;-71
2024/03/23 03:08:31;;;;;;;10.07;2.42;;;;;;;5.75;100.00;100959.47;10456770;28;20064;-71
2024/03/23 03:13:31;;;;;;;6.00;3.40;;;;;;;5.89;100.00;100962.50;10456225;28;20422;-71
2024/03/23 03:18:32;;;;;;;5.97;3.20;;;;;;;5.89;100.00;100952.59;10455316;28;20055;-71
2024/03/23 03:23:33;;;;;;;17.30;3.50;;;;;;;6.00;100.00;100960.38;10456479;28;20039;-71
2024/03/23 03:28:34;;;;;;;15.82;4.50;;;;;;;5.93;100.00;100953.97;10456479;28;20024;-71
2024/03/23 03:33:35;;;;;;;12.30;3.53;;;;;;;5.89;100.00;100957.13;10454751;28;20029;-71
2024/03/23 03:38:35;;;;;;;12.95;3.67;;;;;;;5.86;100.00;100954.78;10455176;28;20090;-70
2024/03/23 03:43:35;;;;;;;12.07;4.70;;;;;;;5.82;100.00;100949.72;10454906;28;20400;-71
2024/03/23 03:48:36;;;;;;;9.95;4.28;;;;;;;5.74;100.00;100941.66;10455459;28;20029;-71
2024/03/23 03:53:36;;;;;;;18.10;3.38;;;;;;;5.70;100.00;100939.44;10454853;28;20485;-71
2024/03/23 03:58:37;;;;;;;3.50;3.20;;;;;;;5.66;100.00;100925.50;10454964;28;20033;-71
2024/03/23 04:03:39;;;;;;;15.25;4.68;;;;;;;5.63;100.00;100925.00;10452707;28;20025;-71
2024/03/23 04:08:39;;;;;;;12.05;4.72;;;;;;;5.57;100.00;100918.44;10454963;28;20044;-71
2024/03/23 04:13:41;;;;;;;3.78;2.85;;;;;;;5.53;100.00;100914.41;10454403;28;20041;-70
2024/03/23 04:18:41;;;;;;;8.10;4.15;;;;;;;5.52;100.00;100915.38;10454341;28;20120;-70
2024/03/23 04:23:42;;;;;;;9.25;3.22;;;;;;;5.48;100.00;100922.94;10453049;28;20465;-70
2024/03/23 04:28:42;;;;;;;8.45;5.13;;;;;;;5.43;100.00;100913.72;10453051;28;20105;-70
2024/03/23 04:33:43;;;;;;;24.65;5.90;;;;;;;5.51;100.00;100919.09;10460911;28;20041;-70
2024/03/23 04:38:45;;;;;;;25.30;5.88;;;;;;;5.62;100.00;100917.97;10461522;28;20037;-70
2024/03/23 04:43:45;;;;;;;13.00;4.78;;;;;;;5.65;100.00;100921.16;10444657;28;20044;-70
2024/03/23 04:48:46;;;;;;;14.20;5.20;;;;;;;5.78;100.00;100921.50;10460414;28;20470;-71
2024/03/23 04:53:47;;;;;;;15.13;5.53;;;;;;;6.07;100.00;100917.53;10462372;28;20045;-70
2024/03/23 04:58:48;;;;;;;16.15;6.30;;;;;;;6.24;100.00;100921.06;10461015;28;20033;-70
2024/03/23 05:03:49;;;;;;;20.92;5.78;;;;;;;6.35;100.00;100919.84;10460569;28;20041;-70
2024/03/23 05:08:49;;;;;;;20.15;6.20;;;;;;;6.35;100.00;100919.84;10460711;28;20542;-70
2024/03/23 05:13:50;;;;;;;20.00;5.47;;;;;;;6.19;100.00;100921.56;10460833;28;20041;-70
2024/03/23 05:18:50;;;;;;;13.23;4.18;;;;;;;6.21;100.00;100929.47;10461352;28;20033;-71
2024/03/23 05:23:51;;;;;;;11.73;4.00;;;;;;;6.26;100.00;100925.25;10458363;28;20025;-70
2024/03/23 05:28:51;;;;;;;11.80;5.07;;;;;;;6.26;100.00;100921.75;10459759;28;20040;-71
2024/03/23 05:33:52;;;;;;;16.77;4.55;;;;;;;6.26;100.00;100927.94;10460079;28;20029;-70
2024/03/23 05:38:52;;;;;;;6.53;3.65;;;;;;;6.18;100.00;100925.25;10461068;28;20056;-70
2024/03/23 05:43:53;;;;;;;9.50;4.57;;;;;;;6.13;100.00;100922.25;10457950;28;20062;-70
2024/03/23 05:48:53;;;;;;;16.92;5.18;;;;;;;6.10;100.00;100914.50;10460245;28;20607;-70
2024/03/23 05:53:54;;;;;;;6.20;3.60;;;;;;;6.18;100.00;100909.13;10459994;28;20369;-70
2024/03/23 05:58:54;;;;;;;15.38;4.80;;;;;;;6.18;100.00;100914.50;10459287;28;20029;-71
2024/03/23 06:03:54;;;;;;;4.28;3.33;;;;;;;6.22;100.00;100907.78;10460304;28;20059;-70
2024/03/23 06:08:55;;;;;;;16.48;3.53;;;;;;;6.37;100.00;100907.94;10459679;28;20487;-70
2024/03/23 06:13:56;;;;;;;14.30;3.17;;;;;;;6.39;100.00;100910.47;10459158;28;20049;-70
2024/03/23 06:18:56;;;;;;;9.27;4.10;;;;;;;6.54;100.00;100924.91;10457853;28;20574;-70
2024/03/23 06:23:56;;;;;;;8.10;3.10;;;;;;;7.24;100.00;100916.09;10458032;28;20115;-70
2024/03/23 06:28:57;;;;;;;3.75;2.53;;;;;;;7.35;100.00;100920.25;10457461;28;20037;-70
2024/03/23 06:33:57;;;;;;;12.82;3.03;;;;;;;7.37;100.00;100915.53;10457877;28;20021;-70
2024/03/23 06:38:58;;;;;;;16.23;3.80;;;;;;;7.21;100.00;100922.69;10457347;28;20025;-70
2024/03/23 06:43:58;;;;;;;13.20;3.20;;;;;;;7.93;100.00;100917.03;10457179;28;20091;-70
2024/03/23 06:48:59;;;;;;;19.23;5.95;;;;;;;9.40;100.00;100914.69;10457557;28;20048;-71
2024/03/23 06:53:59;;;;;;;8.18;3.55;;;;;;;8.70;100.00;100917.91;10455306;28;20029;-70
2024/03/23 06:58:59;;;;;;;19.88;4.03;;;;;;;8.08;100.00;100919.78;10457027;28;20025;-71
2024/03/23 07:04:00;;;;;;;8.05;3.60;;;;;;;8.96;100.00;100918.28;10457307;28;20025;-71
2024/03/23 07:09:00;;;;;;;17.45;3.85;;;;;;;9.10;100.00;100919.31;10455180;28;20505;-71
2024/03/23 07:14:01;;;;;;;23.17;4.85;;;;;;;9.72;100.00;100923.38;10457062;28;20041;-71
2024/03/23 07:19:01;;;;;;;13.60;4.05;;;;;;;10.99;100.00;100915.31;10438032;28;20033;-71
2024/03/23 07:24:01;;;;;;;6.57;2.15;;;;;;;10.29;100.00;100921.69;10455154;28;20036;-71
2024/03/23 07:29:02;;;;;;;14.75;3.22;;;;;;;8.85;100.00;100916.88;10455839;28;20033;-70
2024/03/23 07:34:03;;;;;;;9.85;3.45;;;;;;;9.16;100.00;100928.53;10454737;28;20437;-71
2024/03/23 07:39:04;;;;;;;10.77;3.78;;;;;;;9.06;100.00;100924.25;10454307;28;20041;-70
2024/03/23 07:44:04;;;;;;;4.95;2.97;;;;;;;8.23;100.00;100922.53;10437228;28;20060;-71
2024/03/23 07:49:04;;;;;;;7.03;3.08;;;;;;;10.25;100.00;100905.81;10456161;28;20048;-71
2024/03/23 07:54:05;;;;;;;15.13;4.90;;;;;;;11.09;100.00;100914.94;10454185;28;20029;-71
2024/03/23 07:59:06;;;;;;;9.98;3.85;;;;;;;10.20;100.00;100910.94;10453074;28;20087;-70
2024/03/23 08:04:06;;;;;;;4.05;2.70;;;;;;;10.28;100.00;100907.31;10457067;28;20028;-71
2024/03/23 08:09:06;;;;;;;4.22;3.13;;;;;;;11.44;100.00;100912.19;10462261;28;20033;-71
2024/03/23 08:14:07;;;;;;;10.25;3.85;;;;;;;11.88;100.00;100911.72;10412222;28;20045;-71
2024/03/23 08:19:08;;;;;;;12.57;4.47;;;;;;;11.82;100.00;100913.34;10462659;28;20036;-71
2024/03/23 08:24:09;;;;;;;13.25;3.45;;;;;;;11.29;100.00;100905.03;10462372;28;20341;-70
2024/03/23 08:29:09;;;;;;;9.18;2.95;;;;;;;10.83;100.00;100897.50;10463364;28;20041;-70
2024/03/23 08:34:10;;;;;;;7.05;2.70;;;;;;;10.97;100.00;100900.28;10462255;28;20049;-70
2024/03/23 08:39:10;;;;;;;12.02;3.45;;;;;;;10.35;100.00;100904.66;10462743;28;20063;-70
2024/03/23 08:44:10;;;;;;;4.75;3.33;;;;;;;8.90;100.00;100908.22;10463911;28;20060;-71
2024/03/23 08:49:12;;;;;;;12.02;4.68;;;;;;;9.99;100.00;100902.88;10462928;28;20037;-71
2024/03/23 08:54:12;;;;;;;16.63;3.60;;;;;;;10.40;100.00;100911.19;10462585;28;20154;-70
2024/03/23 08:59:13;;;;;;;11.90;3.67;;;;;;;12.48;100.00;100900.91;10443350;28;20076;-71
2024/03/23 09:04:13;;;;;;;13.35;3.72;;;;;;;11.51;100.00;100923.88;10461747;28;20166;-70
2024/03/23 09:09:13;;;;;;;4.05;3.05;;;;;;;13.09;100.00;100907.91;10461315;28;20032;-71
2024/03/23 09:14:14;;;;;;;7.60;3.22;;;;;;;13.72;100.00;100908.91;10460408;28;20453;-71
2024/03/23 09:19:14;;;;;;;8.55;3.47;;;;;;;11.38;100.00;100903.81;10460029;28;20041;-71
2024/03/23 09:24:14;;;;;;;5.72;3.53;;;;;;;10.69;100.00;100915.56;10460979;28;20033;-70
2024/03/23 09:29:15;;;;;;;13.95;2.90;;;;;;;11.28;100.00;100911.50;10459477;28;20452;-71
2024/03/23 09:34:15;;;;;;;8.15;3.58;;;;;;;11.75;100.00;100904.34;10457902;28;20424;-71
2024/03/23 09:39:16;;;;;;;3.85;2.80;;;;;;;11.64;100.00;100905.78;10461392;28;20074;-71
2024/03/23 09:44:16;;;;;;;9.80;3.97;;;;;;;10.82;100.00;100912.09;10458325;28;20052;-70
2024/03/23 09:49:17;;;;;;;17.35;3.00;;;;;;;10.70;100.00;100908.25;10458678;28;20033;-70
2024/03/23 09:54:17;;;;;;;9.68;4.15;;;;;;;11.79;100.00;100904.78;10457714;28;20029;-71
2024/03/23 09:59:17;;;;;;;4.35;3.22;;;;;;;11.68;100.00;100911.66;10458949;28;20025;-71
2024/03/23 10:04:44;;;;;;;9.65;3.92;;;;;;;12.02;100.00;100899.00;10458554;28;20090;-70
2024/03/23 10:09:44;;;;;;;7.77;2.97;;;;;;;13.69;100.00;100903.06;10458737;28;20427;-70
2024/03/23 10:14:45;;;;;;;11.98;2.53;;;;;;;14.23;100.00;100906.25;10458618;28;20033;-71
2024/03/23 10:19:50;;;;;;;12.68;3.85;;;;;;;12.06;100.00;100905.66;10456534;28;20496;-70
2024/03/23 10:24:50;;;;;;;12.30;4.55;;;;;;;13.51;100.00;100897.50;10457795;28;20037;-73
2024/03/23 10:29:50;;;;;;;14.95;2.30;;;;;;;13.26;100.00;100893.63;10422936;28;20112;-72
2024/03/23 10:34:51;;;;;;;11.23;4.22;;;;;;;12.78;100.00;100904.81;10458334;28;20342;-72
2024/03/23 10:39:51;;;;;;;5.18;2.72;;;;;;;11.41;100.00;100892.56;10456323;28;20028;-71
2024/03/23 10:44:53;;;;;;;7.00;3.33;;;;;;;10.83;100.00;100899.38;10456366;28;20025;-72
2024/03/23 10:49:53;;;;;;;6.50;2.58;;;;;;;11.28;100.00;100891.69;10455536;28;20067;-73
2024/03/23 10:54:54;;;;;;;11.32;3.03;;;;;;;11.83;100.00;100892.47;10457673;28;20527;-73
2024/03/23 10:59:54;;;;;;;5.50;2.42;;;;;;;11.72;100.00;100885.78;10439558;28;20028;-73
2024/03/23 11:04:55;;;;;;;12.70;4.35;;;;;;;12.53;100.00;100868.50;10455003;28;20119;-73
2024/03/23 11:09:55;;;;;;;16.13;3.22;;;;;;;11.83;100.00;100882.44;10454758;28;20560;-73
2024/03/23 11:15:11;;;;;;;4.70;3.33;;;;;;;11.51;100.00;100881.31;10454341;28;20102;-73
2024/03/23 11:20:11;;;;;;;5.72;3.65;;;;;;;12.20;100.00;100865.81;10455062;28;20037;-73
2024/03/23 11:25:24;;;;;;;10.48;2.83;;;;;;;11.81;100.00;100875.56;10455645;28;20088;-73
2024/03/23 11:30:26;;;;;;;9.07;2.95;;;;;;;10.82;100.00;100881.47;10455479;28;20465;-73
2024/03/23 11:35:27;;;;;;;5.47;3.22;;;;;;;10.20;100.00;100869.53;10454623;28;20068;-73
2024/03/23 11:40:27;;;;;;;7.45;3.47;;;;;;;9.94;100.00;100867.44;10455252;28;20033;-73
2024/03/23 11:45:28;;;;;;;10.93;2.88;;;;;;;10.15;100.00;100864.72;10455750;28;20056;-72
2024/03/23 11:50:29;;;;;;;5.43;2.10;;;;;;;9.85;100.00;100868.59;10455176;28;20267;-72
2024/03/23 11:55:29;;;;;;;6.70;2.85;;;;;;;10.22;100.00;100865.59;10453489;28;20029;-73
2024/03/23 12:00:32;;;;;;;17.90;4.22;;;;;;;11.56;100.00;100856.31;10455071;28;20119;-73
2024/03/23 12:05:33;;;;;;;9.73;2.45;;;;;;;13.70;100.00;100842.97;10455419;28;20063;-72
2024/03/23 12:10:33;;;;;;;8.48;2.88;;;;;;;12.66;100.00;100830.44;10453685;28;20472;-72
2024/03/23 12:15:33;;;;;;;3.00;2.00;;;;;;;11.36;100.00;100856.28;10454862;28;20031;-73
2024/03/23 12:20:34;;;;;;;6.03;2.13;;;;;;;10.99;100.00;100846.75;10453821;28;20434;-73
2024/03/23 12:25:35;;;;;;;3.92;2.47;;;;;;;10.88;100.00;100835.44;10454655;28;20032;-73
2024/03/23 12:30:38;;;;;;;10.38;1.88;;;;;;;10.68;100.00;100831.78;10453500;28;20036;-74
2024/03/23 12:35:39;;;;;;;6.28;2.80;;;;;;;10.48;100.00;100808.13;10454864;28;20029;-71
2024/03/23 12:40:41;;;;;;;6.18;2.50;;;;;;;10.94;100.00;100795.84;10453090;28;20043;-72
2024/03/23 12:45:41;;;;;;;4.95;2.72;;;;;;;11.48;100.00;100811.22;10454188;28;20029;-72
2024/03/23 12:50:42;;;;;;;10.77;2.40;;;;;;;10.44;100.00;100825.81;10454040;28;20036;-70
2024/03/23 12:55:42;;;;;;;1.92;1.83;;;;;;;9.89;100.00;100822.06;10476983;28;20036;-72
2024/03/23 13:00:43;;;;;;;7.35;2.00;;;;;;;11.54;100.00;100809.56;10462423;28;20356;-72
2024/03/23 13:05:43;;;;;;;8.35;2.65;;;;;;;13.20;100.00;100798.44;10459344;28;20306;-72
2024/03/23 13:10:44;;;;;;;4.45;2.55;;;;;;;12.37;100.00;100820.06;10460227;28;20059;-72
2024/03/23 13:15:51;;;;;;;6.07;2.70;;;;;;;11.37;100.00;100799.13;10461663;28;20384;-72
2024/03/23 13:20:51;;;;;;;;;;;;;;;10.52;100.00;100799.59;10459733;28;20036;-72
2024/03/23 13:25:55;;;;;;;8.27;2.75;;;;;;;11.44;100.00;100791.00;10460514;28;19931;-72
2024/03/23 13:30:56;;;;;;;3.70;2.17;;;;;;;11.31;100.00;100797.22;10462139;28;20052;-73
2024/03/23 13:35:57;;;;;;;10.85;2.72;;;;;;;11.16;100.00;100793.84;10459816;28;20065;-72
2024/03/23 13:40:58;;;;;;;6.32;1.95;;;;;;;10.16;100.00;100803.31;10460492;28;20037;-72
2024/03/23 13:45:59;;;;;;;8.90;2.10;;;;;;;9.50;100.00;100798.16;10458114;28;20379;-73
2024/03/23 13:51:00;;;;;;;2.33;2.13;;;;;;;9.69;100.00;100811.03;10460511;28;20116;-72
2024/03/23 13:56:00;;;;;;;5.32;1.67;;;;;;;11.06;100.00;100796.09;10457485;28;20075;-74
2024/03/23 14:01:01;;;;;;;3.55;1.60;;;;;;;10.90;100.00;100790.00;10461051;28;20031;-72
2024/03/23 14:06:03;;;;;;;10.77;2.22;;;;;;;9.54;100.00;100775.97;10459412;28;20045;-73
2024/03/23 14:11:11;;;;;;;2.55;1.67;;;;;;;9.24;100.00;100766.31;10458826;28;20045;-73
2024/03/23 14:16:11;;;;;;;2.67;2.33;;;;;;;9.28;100.00;100760.34;10457650;28;20056;-73
2024/03/23 14:21:11;;;;;;;7.20;2.78;;;;;;;9.77;100.00;100756.00;10458122;28;20147;-73
2024/03/23 14:26:12;;;;;;;7.30;2.30;;;;;;;10.50;100.00;100755.66;10456784;28;20029;-72
2024/03/23 14:31:12;;;;;;;1.55;1.45;;;;;;;10.08;100.00;100739.34;10457368;28;20151;-73
2024/03/23 14:36:17;;;;;;;6.32;3.28;;;;;;;11.06;100.00;100748.16;10457667;28;20033;-72
2024/03/23 14:41:17;;;;;;;4.90;2.35;;;;;;;11.61;100.00;100745.31;10472702;28;20461;-72
2024/03/23 14:46:19;;;;;;;2.55;1.65;;;;;;;11.85;100.00;100743.91;10457688;28;20029;-73
2024/03/23 14:51:21;;;;;;;7.93;2.20;;;;;;;11.75;100.00;100743.47;10439857;28;20424;-73
2024/03/23 14:56:22;;;;;;;5.82;2.22;;;;;;;11.36;100.00;100735.09;10455982;28;20025;-73
2024/03/23 15:01:22;;;;;;;12.00;1.88;;;;;;;11.80;100.00;100733.63;10456889;28;20372;-73
2024/03/23 15:06:23;;;;;;;6.43;2.55;;;;;;;11.72;100.00;100725.72;10456570;28;20036;-73
2024/03/23 15:11:23;;;;;;;6.47;2.22;;;;;;;11.07;100.00;100724.59;10455691;28;20378;-73
2024/03/23 15:16:24;;;;;;;7.10;3.13;;;;;;;10.68;100.00;100723.44;10414004;28;20088;-72
2024/03/23 15:21:24;;;;;;;4.88;2.35;;;;;;;10.18;100.00;100720.91;10455760;28;20131;-73
2024/03/23 15:26:25;;;;;;;6.00;2.55;;;;;;;9.60;100.00;100709.44;10456595;28;20426;-73
2024/03/23 15:31:25;;;;;;;4.18;1.95;;;;;;;9.70;100.00;100709.13;10455710;28;20067;-73
2024/03/23 15:36:25;;;;;;;7.97;1.65;;;;;;;9.16;100.00;100691.63;10455303;28;20036;-73
2024/03/23 15:41:26;;;;;;;6.53;1.98;;;;;;;8.92;100.00;100700.94;10438033;28;20357;-73
2024/03/23 15:46:27;;;;;;;4.25;2.53;;;;;;;8.95;100.00;100680.81;10456100;28;20036;-72
2024/03/23 15:51:32;;;;;;;12.63;2.60;;;;;;;8.93;100.00;100686.41;10436534;28;20494;-71
2024/03/23 15:56:32;;;;;;;8.32;2.13;;;;;;;9.02;100.00;100673.59;10454878;28;20036;-72
2024/03/23 16:01:34;;;;;;;4.90;1.73;;;;;;;9.02;100.00;100677.13;10436975;28;20036;-71
2024/03/23 16:06:35;;;;;;;4.35;2.17;;;;;;;8.99;100.00;100666.72;10437004;28;20025;-72
2024/03/23 16:11:35;;;;;;;6.95;2.55;;;;;;;8.84;100.00;100666.81;10454898;28;20473;-71
2024/03/23 16:16:35;;;;;;;6.18;2.05;;;;;;;8.90;100.00;100665.19;10454499;28;20071;-72
2024/03/23 16:21:36;;;;;;;11.40;3.38;;;;;;;9.34;100.00;100671.41;10454882;28;20032;-72
2024/03/23 16:26:36;;;;;;;12.50;3.15;;;;;;;9.56;100.00;100667.63;10455156;28;20098;-71
2024/03/23 16:31:37;;;;;;;6.57;2.05;;;;;;;9.53;100.00;100673.44;10463485;28;20479;-72
2024/03/23 16:36:37;;;;;;;15.57;3.40;;;;;;;9.08;100.00;100667.44;10461240;28;20128;-71
2024/03/23 16:41:38;;;;;;;11.93;2.92;;;;;;;8.76;100.00;100674.19;10462779;28;20384;-71
2024/03/23 16:46:38;;;;;;;1.52;1.42;;;;;;;8.40;100.00;100663.41;10462060;28;20055;-71
2024/03/23 16:51:38;;;;;;;6.32;2.20;;;;;;;8.34;100.00;100646.91;10459788;28;20032;-71
2024/03/23 16:56:39;;;;;;;9.45;3.17;;;;;;;8.27;100.00;100637.88;10461012;28;20098;-71
2024/03/23 17:01:39;;;;;;;8.60;2.80;;;;;;;8.47;100.00;100637.31;10462139;28;20128;-71
2024/03/23 17:06:40;;;;;;;10.70;2.95;;;;;;;8.34;100.00;100638.78;10461213;28;20048;-72
2024/03/23 17:11:43;;;;;;;9.68;3.60;;;;;;;8.16;100.00;100651.84;10476851;28;20174;-72
2024/03/23 17:16:44;;;;;;;10.35;2.92;;;;;;;7.74;100.00;100637.16;10460950;28;20475;-71
2024/03/23 17:21:45;;;;;;;9.98;3.10;;;;;;;7.54;100.00;100638.75;10461307;28;20036;-71
2024/03/23 17:26:45;;;;;;;6.95;3.85;;;;;;;7.49;100.00;100643.84;10459363;28;20032;-72
2024/03/23 17:31:46;;;;;;;5.18;2.50;;;;;;;7.46;100.00;100640.47;10459266;28;20063;-71
2024/03/23 17:36:46;;;;;;;7.68;4.10;;;;;;;7.57;100.00;100641.06;10458519;28;20024;-71
2024/03/23 17:41:47;;;;;;;9.73;3.13;;;;;;;7.81;100.00;100645.34;10459210;28;20055;-72
2024/03/23 17:46:47;;;;;;;4.82;1.77;;;;;;;7.66;100.00;100640.81;10461243;28;20032;-72
2024/03/23 17:51:47;;;;;;;3.88;1.83;;;;;;;7.50;100.00;100635.59;10442010;28;20085;-71
2024/03/23 17:56:48;;;;;;;2.08;1.88;;;;;;;7.50;100.00;100642.81;10458834;28;20064;-72
2024/03/23 18:01:48;;;;;;;13.63;3.53;;;;;;;7.57;100.00;100635.69;10460443;28;20043;-71
2024/03/23 18:06:50;;;;;;;5.25;2.63;;;;;;;7.49;100.00;100649.22;10459209;28;20029;-71
2024/03/23 18:11:52;;;;;;;15.38;3.92;;;;;;;7.43;100.00;100656.19;10475184;28;20051;-71
2024/03/23 18:16:53;;;;;;;18.08;6.13;;;;;;;7.29;100.00;100651.63;10458549;28;20364;-72
2024/03/23 18:21:53;;;;;;;14.00;2.58;;;;;;;7.12;100.00;100661.69;10458490;28;20075;-71
2024/03/23 18:26:55;;;;;;;4.65;3.13;;;;;;;7.00;100.00;100658.59;10458329;28;20524;-71
2024/03/23 18:31:55;;;;;;;2.15;1.95;;;;;;;6.84;100.00;100640.69;10458114;28;20029;-71
2024/03/23 18:36:56;;;;;;;4.55;3.53;;;;;;;6.87;100.00;100634.13;10456320;28;20453;-71
2024/03/23 18:41:56;;;;;;;11.95;4.38;;;;;;;6.95;100.00;100642.13;10456921;28;20056;-71
2024/03/23 18:46:57;;;;;;;4.97;2.47;;;;;;;6.88;100.00;100633.94;10458587;28;20110;-71
2024/03/23 18:51:57;;;;;;;12.52;3.33;;;;;;;6.73;100.00;100636.59;10454735;28;20036;-71
2024/03/23 18:56:58;;;;;;;5.43;2.92;;;;;;;6.61;100.00;100632.63;10454936;28;20074;-71
2024/03/23 19:01:58;;;;;;;10.45;3.10;;;;;;;6.64;100.00;100634.13;10456756;28;20084;-71
2024/03/23 19:06:59;;;;;;;3.35;2.92;;;;;;;6.64;100.00;100629.56;10456158;28;20036;-71
2024/03/23 19:11:59;;;;;;;4.25;2.13;;;;;;;6.66;100.00;100630.22;10456294;28;20373;-71
2024/03/23 19:16:59;;;;;;;6.95;3.80;;;;;;;6.64;100.00;100617.97;10456936;28;20024;-71
2024/03/23 19:22:00;;;;;;;2.88;2.03;;;;;;;6.52;100.00;100618.38;10456606;28;20032;-71
2024/03/23 19:27:00;;;;;;;6.88;2.40;;;;;;;6.50;100.00;100623.09;10455457;28;20027;-71
2024/03/23 19:32:01;;;;;;;3.00;2.08;;;;;;;6.52;100.00;100625.63;10455984;28;20057;-71
2024/03/23 19:37:01;;;;;;;9.52;1.90;;;;;;;6.49;100.00;100620.59;10455012;28;20345;-71
2024/03/23 19:42:01;;;;;;;3.38;2.30;;;;;;;6.46;100.00;100615.56;10439250;28;20044;-71
2024/03/23 19:47:02;;;;;;;7.53;2.90;;;;;;;6.37;100.00;100606.69;10456286;28;20114;-71
2024/03/23 19:52:03;;;;;;;5.07;3.35;;;;;;;6.37;100.00;100601.31;10454092;28;20135;-71
2024/03/23 19:57:04;;;;;;;8.80;3.17;;;;;;;6.37;100.00;100595.94;10454722;28;20032;-71
2024/03/23 20:02:04;;;;;;;3.70;2.65;;;;;;;6.35;100.00;100594.44;10437489;28;20029;-71
2024/03/23 20:07:04;;;;;;;7.88;2.22;;;;;;;6.33;100.00;100591.09;10455919;28;20048;-71
2024/03/23 20:12:05;;;;;;;8.55;2.70;;;;;;;6.36;100.00;100596.97;10456447;28;20057;-71
2024/03/23 20:17:06;;;;;;;9.35;3.40;;;;;;;6.29;100.00;100586.09;10455501;28;20096;-71
2024/03/23 20:22:06;;;;;;;3.17;2.85;;;;;;;6.24;100.00;100585.75;10454643;28;20033;-71
2024/03/23 20:27:08;;;;;;;6.28;3.47;;;;;;;6.24;100.00;100580.38;10452869;28;20068;-71
2024/03/23 20:32:08;;;;;;;5.10;2.50;;;;;;;6.27;100.00;100589.97;10455469;28;20032;-71
2024/03/23 20:37:08;;;;;;;5.40;2.97;;;;;;;6.19;100.00;100584.63;10453506;28;20492;-71
2024/03/23 20:42:11;;;;;;;9.00;2.45;;;;;;;6.16;100.00;100584.97;10435909;28;20045;-71
2024/03/23 20:47:12;;;;;;;3.90;2.85;;;;;;;6.13;100.00;100577.28;10435859;28;20033;-71
2024/03/23 20:52:13;;;;;;;5.07;2.30;;;;;;;6.16;100.00;100582.28;10469165;28;20558;-71
2024/03/23 20:57:13;;;;;;;5.60;2.95;;;;;;;6.08;100.00;100577.78;10453878;28;20107;-71
2024/03/23 21:02:13;;;;;;;4.60;2.35;;;;;;;6.16;100.00;100572.38;10454392;28;20085;-70
2024/03/23 21:07:14;;;;;;;6.72;2.75;;;;;;;6.19;100.00;100568.47;10453894;28;20025;-71
2024/03/23 21:12:14;;;;;;;15.38;2.78;;;;;;;6.29;100.00;100567.25;10454346;28;20067;-71
2024/03/23 21:17:15;;;;;;;6.35;2.50;;;;;;;6.42;100.00;100569.38;10460455;28;20029;-71
2024/03/23 21:22:16;;;;;;;6.32;2.35;;;;;;;6.46;100.00;100565.28;10459688;28;20104;-71
2024/03/23 21:27:16;;;;;;;8.50;2.70;;;;;;;6.68;100.00;100554.72;10460080;28;20028;-71
2024/03/23 21:32:18;;;;;;;2.95;2.25;;;;;;;6.85;100.00;100547.31;10458824;28;20040;-71
2024/03/23 21:37:20;;;;;;;7.93;2.88;;;;;;;6.95;100.00;100532.59;10460447;28;20444;-71
2024/03/23 21:42:20;;;;;;;4.93;3.63;;;;;;;6.99;100.00;100519.63;10459145;28;20456;-71
2024/03/23 21:47:21;;;;;;;8.80;3.05;;;;;;;7.07;100.00;100521.38;10460535;28;20107;-71
2024/03/23 21:52:21;;;;;;;7.85;2.90;;;;;;;7.19;100.00;100501.91;10459919;28;20025;-71
2024/03/23 21:57:24;;;;;;;5.68;2.78;;;;;;;7.34;100.00;100490.28;10459095;28;20124;-71
2024/03/23 22:02:24;;;;;;;3.70;2.70;;;;;;;7.43;100.00;100491.84;10457916;28;20029;-71
2024/03/23 22:07:26;;;;;;;4.15;2.45;;;;;;;7.49;100.00;100492.97;10458422;28;20025;-70
2024/03/23 22:12:27;;;;;;;4.28;2.88;;;;;;;7.57;100.00;100472.16;10442231;28;20173;-71
2024/03/23 22:17:28;;;;;;;6.70;2.55;;;;;;;7.65;100.00;100469.34;10459299;28;20041;-70
2024/03/23 22:22:29;;;;;;;11.55;2.90;;;;;;;7.63;100.00;100455.22;10458086;28;20581;-70
2024/03/23 22:27:29;;;;;;;5.00;2.33;;;;;;;7.48;100.00;100446.34;10459188;28;20085;-71
2024/03/23 22:32:30;;;;;;;8.70;2.55;;;;;;;7.28;100.00;100450.66;10440725;28;20476;-70
2024/03/23 22:37:30;;;;;;;5.72;3.17;;;;;;;6.92;100.00;100481.84;10456856;28;20025;-69
2024/03/23 22:42:30;;;;;;;6.68;2.78;;;;;;;6.32;100.00;100465.72;10456088;28;20125;-70
2024/03/23 22:47:31;;;;;;;7.95;3.15;;;;;;;6.06;100.00;100448.09;10456482;28;20356;-70
2024/03/23 22:52:32;;;;;;;15.57;4.72;;;;;;;6.03;100.00;100432.31;10456355;28;20052;-70